Time;durP1;ratioP1;P1;durP2;ratioP2;P2;SDS_P1;SDS_P2;PMS_P1;PMS_P2;Temp;Humidity;BMP_temperature;BMP_pressure;BME280_temperature;BME280_humidity;BME280_pressure;Samples;Min_cycle;Max_cycle;Signal;HPM_P1;HPM_P2
2022/06/05 00:01:36;;;;;;;10.45;4.85;;;22.50;94.60;;;;;;7344331;19;109341;-81
2022/06/05 00:04:32;;;;;;;7.57;5.15;;;22.30;96.60;;;;;;7346777;19;108422;-81
2022/06/05 00:07:05;;;;;;;8.10;5.00;;;22.10;96.10;;;;;;7342595;19;108169;-81
2022/06/05 00:09:45;;;;;;;8.63;5.47;;;22.00;97.20;;;;;;7347773;19;109895;-81
2022/06/05 00:12:16;;;;;;;8.57;5.13;;;22.00;98.00;;;;;;7340305;19;107953;-81
2022/06/05 00:14:43;;;;;;;11.55;5.30;;;22.00;98.30;;;;;;7343500;19;109155;-82
2022/06/05 00:17:20;;;;;;;9.00;5.60;;;21.90;98.70;;;;;;7342651;19;108211;-81
2022/06/05 00:19:50;;;;;;;7.95;6.15;;;21.90;99.50;;;;;;7340087;19;108621;-81
2022/06/05 00:22:19;;;;;;;9.50;5.32;;;21.80;99.90;;;;;;7342619;19;109324;-81
2022/06/05 00:24:46;;;;;;;11.95;5.80;;;21.70;99.80;;;;;;7341936;19;107836;-81
2022/06/05 00:27:19;;;;;;;7.60;6.57;;;21.70;99.90;;;;;;7340629;19;108305;-80
2022/06/05 00:30:26;;;;;;;10.52;6.60;;;21.60;99.90;;;;;;7341969;19;114125;-81
2022/06/05 00:32:55;;;;;;;11.57;6.30;;;21.50;99.90;;;;;;7347429;19;108437;-81
2022/06/05 00:35:23;;;;;;;10.95;6.55;;;21.40;99.90;;;;;;7341887;19;108963;-81
2022/06/05 00:38:07;;;;;;;12.50;6.95;;;21.40;99.90;;;;;;7342215;19;107979;-80
2022/06/05 00:41:22;;;;;;;7.65;6.30;;;21.40;99.90;;;;;;7341728;19;108166;-81
2022/06/05 00:43:52;;;;;;;10.13;6.40;;;21.40;99.90;;;;;;7342754;19;109874;-81
2022/06/05 00:46:20;;;;;;;14.38;8.00;;;21.30;99.90;;;;;;7346950;19;108727;-82
2022/06/05 00:48:48;;;;;;;16.85;7.47;;;21.20;99.90;;;;;;7343757;19;110557;-81
2022/06/05 00:51:15;;;;;;;12.57;7.90;;;21.00;99.90;;;;;;7345365;19;109494;-81
2022/06/05 00:53:42;;;;;;;11.55;7.63;;;20.80;99.90;;;;;;7346423;19;108009;-81
2022/06/05 00:56:11;;;;;;;9.70;8.75;;;20.80;99.90;;;;;;7350046;19;109700;-81
2022/06/05 00:58:40;;;;;;;10.93;7.90;;;20.60;99.90;;;;;;7344500;19;108160;-83
2022/06/05 01:01:07;;;;;;;12.23;8.00;;;20.60;99.90;;;;;;7344691;19;108244;-81
2022/06/05 01:03:36;;;;;;;17.08;8.82;;;20.60;99.90;;;;;;7344153;19;108697;-82
2022/06/05 01:06:04;;;;;;;19.30;8.43;;;20.50;99.90;;;;;;7343995;19;107896;-82
2022/06/05 01:08:31;;;;;;;13.55;8.75;;;20.40;99.90;;;;;;7344403;19;108907;-81
2022/06/05 01:11:06;;;;;;;10.30;8.68;;;20.30;99.90;;;;;;7343668;19;108878;-81
2022/06/05 01:13:52;;;;;;;10.43;9.10;;;20.20;99.90;;;;;;7341957;19;107496;-81
2022/06/05 01:16:46;;;;;;;13.38;9.15;;;20.20;99.90;;;;;;7344613;19;108235;-81
2022/06/05 01:19:50;;;;;;;11.43;8.50;;;20.20;99.90;;;;;;7349322;19;109294;-81
2022/06/05 01:22:44;;;;;;;11.13;8.90;;;20.10;99.90;;;;;;7345089;19;109037;-82
2022/06/05 01:25:47;;;;;;;11.77;9.07;;;20.00;99.90;;;;;;7342233;19;108760;-82
2022/06/05 01:28:19;;;;;;;14.38;8.73;;;19.90;99.90;;;;;;7339982;19;108243;-82
2022/06/05 01:31:00;;;;;;;9.68;8.88;;;19.70;99.90;;;;;;7338656;19;108657;-81
2022/06/05 01:33:29;;;;;;;11.77;8.70;;;19.70;99.90;;;;;;7338025;19;112147;-82
2022/06/05 01:35:56;;;;;;;12.55;8.15;;;19.70;99.90;;;;;;7341758;19;108358;-81
2022/06/05 01:38:41;;;;;;;8.57;7.72;;;19.80;99.90;;;;;;7339648;19;107966;-82
2022/06/05 01:41:17;;;;;;;9.18;8.27;;;19.90;99.90;;;;;;7338684;19;109377;-82
2022/06/05 01:43:49;;;;;;;9.52;7.95;;;20.00;99.90;;;;;;7344888;19;107128;-81
2022/06/05 01:46:33;;;;;;;13.38;8.40;;;20.00;99.90;;;;;;7340021;19;108517;-82
2022/06/05 01:49:19;;;;;;;10.07;7.90;;;20.10;99.90;;;;;;7340298;19;108279;-82
2022/06/05 01:52:07;;;;;;;11.23;8.20;;;20.10;99.90;;;;;;7339740;19;108349;-82
2022/06/05 01:54:52;;;;;;;9.52;8.52;;;20.10;99.90;;;;;;7339056;19;107968;-82
2022/06/05 01:57:21;;;;;;;15.70;9.35;;;20.10;99.90;;;;;;7339986;19;108059;-83
2022/06/05 01:59:54;;;;;;;9.82;8.80;;;20.00;99.90;;;;;;7340735;19;108949;-83
2022/06/05 02:02:27;;;;;;;11.57;9.73;;;19.80;99.90;;;;;;7342409;19;109285;-82
2022/06/05 02:05:08;;;;;;;15.18;10.02;;;19.60;99.90;;;;;;7347698;19;107338;-83
2022/06/05 02:07:52;;;;;;;14.18;10.23;;;19.50;99.90;;;;;;7340644;19;110258;-83
2022/06/05 02:10:25;;;;;;;13.43;10.45;;;19.50;99.90;;;;;;7336479;19;110903;-83
2022/06/05 02:12:55;;;;;;;15.20;9.85;;;19.40;99.90;;;;;;7338586;19;111139;-83
2022/06/05 02:15:22;;;;;;;12.77;11.25;;;19.40;99.90;;;;;;7342391;19;108964;-83
2022/06/05 02:17:50;;;;;;;15.38;10.90;;;19.40;99.90;;;;;;7341064;19;109927;-83
2022/06/05 02:20:18;;;;;;;11.88;10.60;;;19.30;99.90;;;;;;7336490;19;112083;-83
2022/06/05 02:22:48;;;;;;;15.18;10.80;;;19.30;99.90;;;;;;7339532;19;109965;-83
2022/06/05 02:25:18;;;;;;;12.68;11.25;;;19.20;99.90;;;;;;7340492;19;113944;-84
2022/06/05 02:27:45;;;;;;;15.95;11.70;;;19.20;99.90;;;;;;7344583;19;110777;-83
2022/06/05 02:30:15;;;;;;;16.35;11.68;;;19.10;99.90;;;;;;7338504;19;110984;-83
2022/06/05 02:32:53;;;;;;;14.70;11.60;;;19.10;99.90;;;;;;7338401;19;111770;-83
2022/06/05 02:35:51;;;;;;;13.63;12.05;;;19.10;99.90;;;;;;7338284;19;111124;-83
2022/06/05 02:38:37;;;;;;;13.70;12.20;;;19.00;99.90;;;;;;7339119;19;111635;-84
2022/06/05 02:41:26;;;;;;;12.93;11.18;;;19.00;99.90;;;;;;7338580;19;110976;-84
2022/06/05 02:47:15;;;;;;;15.48;12.40;;;18.90;99.90;;;;;;7340872;19;111457;-83
2022/06/05 02:49:58;;;;;;;14.25;12.13;;;18.80;99.90;;;;;;7336107;19;112209;-84
2022/06/05 02:52:29;;;;;;;14.45;11.98;;;18.80;99.90;;;;;;7342576;19;112293;-83
2022/06/05 02:55:08;;;;;;;16.35;12.38;;;18.80;99.90;;;;;;7340118;19;111764;-83
2022/06/05 02:57:35;;;;;;;13.63;12.10;;;18.80;99.90;;;;;;7339534;19;110242;-83
2022/06/05 03:00:08;;;;;;;13.70;12.07;;;18.80;99.90;;;;;;7338290;19;112239;-82
2022/06/05 03:05:21;;;;;;;16.02;12.20;;;18.80;99.90;;;;;;7340046;19;109910;-83
2022/06/05 03:07:49;;;;;;;13.30;12.10;;;18.70;99.90;;;;;;7339998;19;111757;-83
2022/06/05 03:10:17;;;;;;;16.20;13.00;;;18.70;99.90;;;;;;7336706;19;111768;-83
2022/06/05 03:12:45;;;;;;;12.95;11.75;;;18.70;99.90;;;;;;7336702;19;110002;-84
2022/06/05 03:15:13;;;;;;;16.48;12.45;;;18.70;99.90;;;;;;7342040;19;111071;-83
2022/06/05 03:17:41;;;;;;;14.40;12.43;;;18.60;99.90;;;;;;7338181;19;110451;-83
2022/06/05 03:20:10;;;;;;;13.82;12.10;;;18.70;99.90;;;;;;7337021;19;111468;-83
2022/06/05 03:22:37;;;;;;;14.02;12.50;;;18.60;99.90;;;;;;7344149;19;112549;-83
2022/06/05 03:25:05;;;;;;;15.73;13.60;;;18.60;99.90;;;;;;7346154;19;110058;-84
2022/06/05 03:27:33;;;;;;;15.10;13.30;;;18.60;99.90;;;;;;7344883;19;111552;-84
2022/06/05 03:30:01;;;;;;;16.80;12.40;;;18.60;99.90;;;;;;7344746;19;114156;-84
2022/06/05 03:32:28;;;;;;;15.30;13.50;;;18.60;99.90;;;;;;7342267;19;109978;-83
2022/06/05 03:34:56;;;;;;;14.57;12.85;;;18.60;99.90;;;;;;7344688;19;111614;-83
2022/06/05 03:37:23;;;;;;;13.90;12.43;;;18.60;99.90;;;;;;7350790;19;111799;-83
2022/06/05 03:39:50;;;;;;;14.15;12.65;;;18.50;99.90;;;;;;7344128;19;112616;-83
2022/06/05 03:42:18;;;;;;;18.48;12.48;;;18.60;99.90;;;;;;7343616;19;111719;-82
2022/06/05 03:44:45;;;;;;;14.20;11.52;;;18.60;99.90;;;;;;7345099;19;109834;-83
2022/06/05 03:47:12;;;;;;;14.73;11.98;;;18.60;99.90;;;;;;7343446;19;110788;-83
2022/06/05 03:49:39;;;;;;;13.43;11.90;;;18.60;99.90;;;;;;7342471;19;112027;-84
2022/06/05 03:52:09;;;;;;;13.85;12.48;;;18.60;99.90;;;;;;7342789;19;110236;-83
2022/06/05 03:54:37;;;;;;;14.63;13.23;;;18.60;99.90;;;;;;7342735;19;115122;-83
2022/06/05 03:57:05;;;;;;;13.07;11.82;;;18.60;99.90;;;;;;7348901;19;111980;-83
2022/06/05 03:59:36;;;;;;;16.55;12.25;;;18.60;99.90;;;;;;7345844;19;111527;-83
2022/06/05 04:02:05;;;;;;;13.05;11.77;;;18.60;99.90;;;;;;7343935;19;111798;-83
2022/06/05 04:04:33;;;;;;;18.70;12.85;;;18.60;99.90;;;;;;7343437;19;110809;-83
2022/06/05 04:07:00;;;;;;;12.93;11.70;;;18.60;99.90;;;;;;7341010;19;111881;-84
2022/06/05 04:09:27;;;;;;;12.82;11.50;;;18.60;99.90;;;;;;7344422;19;111794;-83
2022/06/05 04:11:54;;;;;;;13.35;12.10;;;18.60;99.90;;;;;;7341791;19;110664;-83
2022/06/05 04:14:21;;;;;;;13.43;12.07;;;18.60;99.90;;;;;;7342995;19;111002;-83
2022/06/05 04:16:49;;;;;;;15.65;13.98;;;18.50;99.90;;;;;;7341574;19;113861;-83
2022/06/05 04:19:16;;;;;;;15.85;12.45;;;18.50;99.90;;;;;;7348336;19;110117;-83
2022/06/05 04:21:46;;;;;;;16.70;13.02;;;18.60;99.90;;;;;;7341638;19;112850;-84
2022/06/05 04:24:15;;;;;;;15.23;12.43;;;18.60;99.90;;;;;;7343235;19;110045;-83
2022/06/05 04:26:43;;;;;;;17.02;12.70;;;18.60;99.90;;;;;;7343991;19;112729;-84
2022/06/05 04:29:11;;;;;;;12.85;11.55;;;18.60;99.90;;;;;;7342200;19;112131;-82
2022/06/05 04:31:44;;;;;;;15.05;12.02;;;18.60;99.90;;;;;;7340944;19;110820;-83
2022/06/05 04:34:15;;;;;;;13.38;11.93;;;18.60;99.90;;;;;;7340144;19;109860;-82
2022/06/05 04:36:43;;;;;;;13.38;12.07;;;18.50;99.90;;;;;;7341195;19;111439;-82
2022/06/05 04:39:11;;;;;;;13.43;11.77;;;18.50;99.90;;;;;;7341849;19;109924;-83
2022/06/05 04:41:39;;;;;;;14.95;13.00;;;18.50;99.90;;;;;;7346648;19;110636;-83
2022/06/05 04:44:08;;;;;;;15.93;12.02;;;18.50;99.90;;;;;;7343210;19;112028;-82
2022/06/05 04:46:35;;;;;;;14.75;13.10;;;18.50;99.90;;;;;;7340093;19;111503;-82
2022/06/05 04:49:06;;;;;;;15.60;13.15;;;18.60;99.90;;;;;;7340702;19;112318;-83
2022/06/05 04:51:36;;;;;;;15.55;13.20;;;18.60;99.90;;;;;;7341585;19;110234;-82
2022/06/05 04:54:05;;;;;;;15.30;13.02;;;18.60;99.90;;;;;;7338935;19;114764;-82
2022/06/05 04:56:32;;;;;;;15.00;13.40;;;18.60;99.90;;;;;;7342736;19;111822;-83
2022/06/05 04:59:00;;;;;;;13.95;12.65;;;18.60;99.90;;;;;;7343119;19;110541;-82
2022/06/05 05:01:35;;;;;;;14.32;12.93;;;18.60;99.90;;;;;;7340249;19;112276;-82
2022/06/05 05:04:11;;;;;;;18.85;13.13;;;18.60;99.90;;;;;;7346338;19;112316;-82
2022/06/05 05:06:41;;;;;;;14.35;12.90;;;18.60;99.90;;;;;;7342426;19;111722;-83
2022/06/05 05:09:08;;;;;;;16.13;13.70;;;18.50;99.90;;;;;;7340956;19;114165;-83
2022/06/05 05:11:37;;;;;;;15.45;13.77;;;18.50;99.90;;;;;;7341597;19;111180;-83
2022/06/05 05:14:04;;;;;;;15.93;13.40;;;18.50;99.90;;;;;;7339967;19;111499;-83
2022/06/05 05:16:32;;;;;;;15.68;14.13;;;18.40;99.90;;;;;;7340912;19;111708;-82
2022/06/05 05:19:06;;;;;;;15.55;13.48;;;18.40;99.90;;;;;;7337809;19;110514;-83
2022/06/05 05:21:33;;;;;;;17.23;13.55;;;18.40;99.90;;;;;;7341277;19;110782;-82
2022/06/05 05:24:01;;;;;;;15.07;13.48;;;18.40;99.90;;;;;;7340658;19;112157;-83
2022/06/05 05:26:30;;;;;;;15.40;13.50;;;18.40;99.90;;;;;;7346397;19;110457;-82
2022/06/05 05:28:59;;;;;;;15.77;13.45;;;18.40;99.90;;;;;;7340533;19;111576;-83
2022/06/05 05:31:30;;;;;;;14.60;13.02;;;18.40;99.90;;;;;;7338491;19;110183;-82
2022/06/05 05:33:57;;;;;;;14.57;12.95;;;18.40;99.90;;;;;;7336730;19;113916;-83
2022/06/05 05:36:25;;;;;;;18.00;13.50;;;18.50;99.90;;;;;;7340167;19;114008;-84
2022/06/05 05:44:40;;;;;;;13.23;11.93;;;18.50;99.90;;;;;;7340455;19;111745;-83
2022/06/05 05:47:15;;;;;;;14.27;12.93;;;18.50;99.90;;;;;;7338611;19;111629;-83
2022/06/05 05:49:42;;;;;;;16.27;13.05;;;18.50;99.90;;;;;;7346353;19;111893;-83
2022/06/05 05:52:10;;;;;;;14.50;13.02;;;18.50;99.90;;;;;;7340059;19;110932;-83
2022/06/05 05:54:38;;;;;;;14.52;13.18;;;18.60;99.90;;;;;;7336911;19;111829;-83
2022/06/05 05:57:08;;;;;;;13.98;12.30;;;18.70;99.90;;;;;;7338871;19;111529;-83
2022/06/05 05:59:35;;;;;;;20.63;13.50;;;18.70;99.90;;;;;;7338447;19;109851;-84
2022/06/05 06:02:06;;;;;;;12.88;11.57;;;18.80;99.90;;;;;;7339464;19;111968;-83
2022/06/05 06:04:33;;;;;;;15.00;11.70;;;19.00;99.90;;;;;;7335643;19;112007;-83
2022/06/05 06:07:00;;;;;;;13.73;12.13;;;18.90;99.90;;;;;;7338205;19;110035;-84
2022/06/05 06:09:27;;;;;;;12.93;11.73;;;19.00;99.90;;;;;;7345679;19;115166;-83
2022/06/05 06:11:54;;;;;;;14.75;12.25;;;19.10;99.90;;;;;;7338719;19;110086;-82
2022/06/05 06:14:21;;;;;;;16.80;12.07;;;19.10;99.90;;;;;;7338056;19;111481;-84
2022/06/05 06:16:48;;;;;;;17.00;11.82;;;19.10;99.90;;;;;;7338444;19;111791;-83
2022/06/05 06:19:16;;;;;;;12.38;11.23;;;19.20;99.90;;;;;;7338416;19;109982;-83
2022/06/05 06:21:43;;;;;;;16.98;11.55;;;19.30;99.90;;;;;;7340467;19;111361;-83
2022/06/05 06:24:11;;;;;;;22.92;11.65;;;19.30;99.90;;;;;;7342206;19;111722;-85
2022/06/05 06:26:40;;;;;;;16.45;11.48;;;19.40;99.90;;;;;;7344775;19;110116;-82
2022/06/05 06:29:08;;;;;;;16.60;11.35;;;19.50;99.90;;;;;;7343669;19;111479;-82
2022/06/05 06:31:38;;;;;;;17.67;11.10;;;19.60;99.90;;;;;;7343486;19;111484;-83
2022/06/05 06:34:06;;;;;;;24.80;10.77;;;19.60;99.90;;;;;;7333927;19;111157;-83
2022/06/05 06:36:33;;;;;;;17.58;10.90;;;19.60;99.90;;;;;;7338720;19;111812;-83
2022/06/05 06:39:19;;;;;;;25.17;10.68;;;19.70;99.90;;;;;;7337475;19;110712;-83
2022/06/05 06:41:47;;;;;;;20.40;10.73;;;19.80;99.90;;;;;;7338828;19;111093;-83
2022/06/05 06:44:15;;;;;;;23.88;10.82;;;19.90;99.90;;;;;;7336767;19;111461;-83
2022/06/05 06:46:42;;;;;;;12.98;9.32;;;19.90;99.90;;;;;;7340588;19;110157;-84
2022/06/05 06:49:09;;;;;;;12.65;10.60;;;20.00;99.90;;;;;;7347733;19;110376;-83
2022/06/05 06:51:37;;;;;;;10.98;10.00;;;20.00;99.90;;;;;;7342154;19;110820;-83
2022/06/05 06:54:04;;;;;;;11.15;10.23;;;20.00;99.90;;;;;;7346773;19;110491;-83
2022/06/05 06:56:34;;;;;;;11.18;9.98;;;20.00;99.90;;;;;;7342865;19;112176;-83
2022/06/05 06:59:02;;;;;;;12.98;10.10;;;20.10;99.90;;;;;;7343636;19;110264;-83
2022/06/05 07:01:30;;;;;;;15.15;9.15;;;20.20;99.90;;;;;;7341372;19;112494;-83
2022/06/05 07:03:57;;;;;;;16.67;10.35;;;20.30;99.90;;;;;;7344433;19;107526;-83
2022/06/05 07:06:24;;;;;;;15.93;9.60;;;20.50;99.90;;;;;;7343381;19;111429;-83
2022/06/05 07:08:51;;;;;;;21.35;10.05;;;20.60;99.90;;;;;;7346120;19;111877;-82
2022/06/05 07:11:19;;;;;;;10.90;9.82;;;20.70;99.90;;;;;;7340959;19;111690;-84
2022/06/05 07:13:48;;;;;;;28.90;10.68;;;20.80;99.90;;;;;;7338698;19;109307;-84
2022/06/05 07:16:16;;;;;;;10.20;9.20;;;20.90;99.90;;;;;;7341037;19;110333;-85
2022/06/05 07:18:43;;;;;;;14.07;9.68;;;21.00;99.90;;;;;;7340884;19;108929;-84
2022/06/05 07:21:14;;;;;;;12.35;9.55;;;21.10;99.90;;;;;;7339391;19;108106;-83
2022/06/05 07:23:41;;;;;;;11.02;9.70;;;21.20;99.90;;;;;;7339489;19;109587;-83
2022/06/05 07:26:12;;;;;;;13.18;9.60;;;21.30;99.90;;;;;;7339085;19;109248;-84
2022/06/05 07:28:39;;;;;;;12.52;8.88;;;21.40;99.90;;;;;;7338919;19;107536;-84
2022/06/05 07:31:09;;;;;;;13.82;8.73;;;21.60;99.90;;;;;;7341214;19;108012;-84
2022/06/05 07:33:37;;;;;;;21.00;9.80;;;21.70;99.90;;;;;;7340526;19;109129;-84
2022/06/05 07:36:07;;;;;;;17.23;8.75;;;21.80;99.90;;;;;;7340891;19;110562;-86
2022/06/05 07:38:36;;;;;;;17.02;8.98;;;22.00;99.90;;;;;;7346056;19;107928;-84
2022/06/05 07:41:05;;;;;;;9.50;8.60;;;22.10;99.90;;;;;;7340067;19;108329;-86
2022/06/05 07:43:33;;;;;;;10.30;9.20;;;22.20;99.90;;;;;;7340206;19;108552;-86
2022/06/05 07:46:06;;;;;;;12.40;9.05;;;22.30;99.90;;;;;;7340074;19;108110;-86
2022/06/05 07:48:33;;;;;;;19.00;8.57;;;22.50;99.90;;;;;;7341087;19;107748;-86
2022/06/05 07:56:39;;;;;;;28.20;9.35;;;22.50;99.90;;;;;;7340861;19;111659;-86
2022/06/05 07:59:07;;;;;;;13.43;8.60;;;22.60;99.90;;;;;;7339914;19;109535;-85
2022/06/05 08:01:59;;;;;;;18.52;9.05;;;22.60;99.90;;;;;;7344565;19;108854;-86
2022/06/05 08:04:27;;;;;;;15.70;8.68;;;22.60;99.90;;;;;;7338657;19;108535;-86
2022/06/05 08:06:57;;;;;;;17.33;8.90;;;22.70;99.90;;;;;;7339755;19;108903;-86
2022/06/05 08:09:25;;;;;;;9.40;8.40;;;22.90;99.90;;;;;;7342407;19;107463;-86
2022/06/05 08:11:52;;;;;;;13.02;9.23;;;22.90;99.90;;;;;;7344511;19;107990;-87
2022/06/05 08:14:20;;;;;;;15.00;8.45;;;22.90;99.90;;;;;;7341289;19;109179;-86
2022/06/05 08:16:47;;;;;;;12.05;9.18;;;23.00;99.90;;;;;;7343138;19;108199;-85
2022/06/05 08:19:18;;;;;;;10.57;8.48;;;23.10;99.90;;;;;;7343298;19;110980;-85
2022/06/05 08:21:51;;;;;;;9.88;8.73;;;23.10;99.90;;;;;;7351795;19;108711;-85
2022/06/05 08:24:19;;;;;;;8.35;7.65;;;23.20;99.90;;;;;;7347260;19;108501;-85
2022/06/05 08:26:46;;;;;;;12.48;8.32;;;23.20;99.90;;;;;;7347257;19;109242;-84
2022/06/05 08:29:13;;;;;;;9.45;8.63;;;23.30;99.90;;;;;;7346760;19;107344;-84
2022/06/05 08:31:41;;;;;;;9.50;8.52;;;23.20;99.90;;;;;;7344294;19;108796;-84
2022/06/05 08:34:08;;;;;;;11.23;9.18;;;23.30;99.90;;;;;;7345345;19;109400;-83
2022/06/05 08:36:35;;;;;;;11.43;9.00;;;23.30;99.90;;;;;;7344577;19;110909;-83
2022/06/05 08:42:04;;;;;;;18.98;9.63;;;23.40;99.90;;;;;;7340015;19;113048;-84
2022/06/05 08:44:46;;;;;;;10.70;8.77;;;23.40;99.90;;;;;;7350568;19;110414;-84
2022/06/05 08:47:26;;;;;;;10.77;8.93;;;23.40;99.90;;;;;;7343148;19;111450;-83
2022/06/05 08:50:11;;;;;;;18.27;9.55;;;23.50;99.90;;;;;;7343614;19;108229;-84
2022/06/05 08:52:46;;;;;;;20.63;9.90;;;23.50;99.90;;;;;;7346135;19;108945;-84
2022/06/05 08:55:29;;;;;;;11.43;9.05;;;23.50;99.90;;;;;;7343379;19;109617;-84
2022/06/05 08:58:05;;;;;;;14.05;9.45;;;23.60;99.90;;;;;;7349681;19;108033;-90
2022/06/05 09:00:38;;;;;;;16.50;9.32;;;23.50;99.90;;;;;;7349169;19;108548;-91
2022/06/05 09:03:25;;;;;;;13.77;9.75;;;23.50;99.90;;;;;;7348207;19;111989;-91
2022/06/05 09:05:59;;;;;;;33.35;10.95;;;23.60;99.90;;;;;;7350062;19;107225;-91
2022/06/05 09:08:36;;;;;;;9.93;9.02;;;23.60;99.90;;;;;;7349919;19;112277;-91
2022/06/05 09:11:29;;;;;;;10.90;9.25;;;23.60;99.90;;;;;;7350924;19;111551;-91
2022/06/05 09:14:37;;;;;;;8.95;8.05;;;23.60;99.90;;;;;;7350035;19;108600;-91
2022/06/05 09:17:16;;;;;;;10.52;8.93;;;23.60;99.90;;;;;;7348841;19;107808;-92
2022/06/05 09:19:45;;;;;;;10.50;9.57;;;23.60;99.90;;;;;;7347650;19;107973;-91
2022/06/05 09:22:31;;;;;;;10.25;9.48;;;23.50;99.90;;;;;;7348077;19;107366;-91
2022/06/05 09:25:21;;;;;;;11.95;9.48;;;23.50;99.90;;;;;;7349436;19;109220;-91
2022/06/05 09:28:23;;;;;;;11.10;9.95;;;23.50;99.90;;;;;;7349634;19;107198;-90
2022/06/05 09:31:13;;;;;;;13.02;9.95;;;23.50;99.90;;;;;;7346760;19;108056;-91
2022/06/05 09:33:42;;;;;;;19.92;10.65;;;23.50;99.90;;;;;;7353878;19;107371;-91
2022/06/05 09:36:18;;;;;;;19.10;10.82;;;23.40;99.90;;;;;;7342903;19;111951;-90
2022/06/05 09:38:58;;;;;;;15.40;10.40;;;23.40;99.90;;;;;;7349726;19;109713;-95
2022/06/05 09:42:17;;;;;;;12.13;9.82;;;23.40;99.90;;;;;;7348873;19;111802;-92
2022/06/05 09:45:20;;;;;;;13.40;11.43;;;23.40;99.90;;;;;;7350571;19;108276;-93
2022/06/05 09:48:28;;;;;;;13.82;9.60;;;23.40;99.90;;;;;;7349192;19;109868;-93
2022/06/05 09:51:01;;;;;;;10.95;10.05;;;23.30;99.90;;;;;;7351783;19;110964;-93
2022/06/05 09:53:39;;;;;;;12.25;9.57;;;23.20;99.90;;;;;;7349881;19;111831;-94
2022/06/05 09:58:24;;;;;;;11.48;10.45;;;23.20;99.90;;;;;;7350025;19;108937;-94
2022/06/05 09:59:43;;;;;;;11.05;10.05;;;23.20;99.90;;;;;;7348814;19;110158;-93
2022/06/05 10:02:11;;;;;;;11.82;10.60;;;23.20;99.90;;;;;;7347472;19;109881;-93
2022/06/05 10:04:39;;;;;;;14.55;11.45;;;23.10;99.90;;;;;;7347081;19;110331;-93
2022/06/05 10:07:34;;;;;;;13.88;10.70;;;23.00;99.90;;;;;;7348119;19;114304;-92
2022/06/05 10:10:14;;;;;;;12.63;11.27;;;23.00;99.90;;;;;;7349140;19;110340;-93
2022/06/05 10:12:57;;;;;;;18.40;12.23;;;23.00;99.90;;;;;;7351463;19;110741;-95
2022/06/05 10:15:48;;;;;;;14.80;11.85;;;22.90;99.90;;;;;;7351976;19;110918;-96
2022/06/05 10:18:50;;;;;;;14.65;12.55;;;22.90;99.90;;;;;;7343539;19;110588;-89
2022/06/05 10:21:20;;;;;;;14.82;12.98;;;22.70;99.90;;;;;;7341842;19;111842;-90
2022/06/05 10:23:55;;;;;;;18.10;13.15;;;22.60;99.90;;;;;;7351141;19;111557;-91
2022/06/05 10:26:28;;;;;;;21.75;15.50;;;22.50;99.90;;;;;;7342332;19;111460;-90
2022/06/05 10:29:37;;;;;;;21.80;13.68;;;22.40;99.90;;;;;;7340488;19;111532;-89
2022/06/05 10:32:14;;;;;;;25.83;13.88;;;22.30;99.90;;;;;;7335298;19;110204;-87
2022/06/05 10:34:58;;;;;;;22.95;14.88;;;22.30;99.90;;;;;;7338141;19;111931;-86
2022/06/05 10:37:40;;;;;;;13.70;10.98;;;22.20;99.90;;;;;;7335409;19;114937;-86
2022/06/05 10:40:17;;;;;;;11.95;9.23;;;22.10;99.90;;;;;;7338495;19;110788;-86
2022/06/05 10:43:02;;;;;;;5.75;5.25;;;22.10;99.90;;;;;;7338549;19;111397;-85
2022/06/05 10:45:41;;;;;;;10.38;9.27;;;22.10;99.90;;;;;;7345671;19;110647;-84
2022/06/05 10:48:40;;;;;;;8.90;7.82;;;21.90;99.90;;;;;;7339879;19;107937;-85
2022/06/05 10:51:14;;;;;;;6.20;5.60;;;21.80;99.90;;;;;;7339864;19;108281;-85
2022/06/05 10:53:52;;;;;;;6.03;4.30;;;21.80;99.90;;;;;;7341529;19;108055;-85
2022/06/05 10:56:33;;;;;;;4.07;3.50;;;21.90;99.90;;;;;;7338271;19;111512;-85
2022/06/05 10:59:14;;;;;;;3.88;3.47;;;21.80;99.90;;;;;;7342222;19;108159;-84
2022/06/05 11:01:56;;;;;;;4.68;4.28;;;21.80;99.90;;;;;;7341128;19;109221;-83
2022/06/05 11:04:40;;;;;;;7.85;5.25;;;21.80;99.90;;;;;;7339266;19;108263;-84
2022/06/05 11:07:24;;;;;;;7.78;6.95;;;21.70;99.90;;;;;;7339817;19;109303;-84
2022/06/05 11:09:57;;;;;;;10.00;9.02;;;21.60;99.90;;;;;;7346313;19;109163;-85
2022/06/05 11:15:43;;;;;;;12.43;11.25;;;21.60;99.90;;;;;;7336658;19;110130;-84
2022/06/05 11:18:17;;;;;;;11.00;9.95;;;21.60;99.90;;;;;;7335809;19;111641;-84
2022/06/05 11:20:59;;;;;;;10.70;9.70;;;21.50;99.90;;;;;;7340413;19;110206;-85
2022/06/05 11:23:29;;;;;;;9.20;8.40;;;21.50;99.90;;;;;;7338969;19;109276;-84
2022/06/05 11:26:40;;;;;;;9.70;8.70;;;21.40;99.90;;;;;;7340729;19;107933;-84
2022/06/05 11:29:22;;;;;;;13.80;12.60;;;21.40;99.90;;;;;;7338555;19;108482;-84
2022/06/05 11:32:19;;;;;;;14.15;12.80;;;21.40;99.90;;;;;;7337387;19;111265;-85
2022/06/05 11:35:11;;;;;;;14.30;12.75;;;21.40;99.90;;;;;;7340529;19;114215;-85
2022/06/05 11:37:38;;;;;;;10.32;9.32;;;21.50;99.90;;;;;;7334613;19;110690;-86
2022/06/05 11:40:30;;;;;;;10.07;9.18;;;21.30;99.90;;;;;;7338642;19;111504;-85
2022/06/05 11:43:15;;;;;;;9.60;8.80;;;21.30;99.90;;;;;;7345222;19;109001;-87
2022/06/05 11:46:03;;;;;;;17.92;16.05;;;21.30;99.90;;;;;;7346674;19;109287;-86
2022/06/05 11:48:54;;;;;;;25.25;20.00;;;21.30;99.90;;;;;;7343454;19;111186;-85
2022/06/05 11:51:24;;;;;;;22.70;20.08;;;21.30;99.90;;;;;;7341754;19;111709;-86
2022/06/05 11:54:09;;;;;;;29.25;23.90;;;21.30;99.90;;;;;;7343140;19;109937;-86
2022/06/05 11:57:10;;;;;;;29.15;24.25;;;21.20;99.90;;;;;;7342362;19;113661;-85
2022/06/05 12:00:07;;;;;;;30.33;25.05;;;21.20;99.90;;;;;;7347055;19;112739;-84
2022/06/05 12:03:01;;;;;;;31.98;25.63;;;21.10;99.90;;;;;;7343895;19;111766;-85
2022/06/05 12:05:47;;;;;;;29.05;25.10;;;21.00;99.90;;;;;;7343314;19;114573;-85
2022/06/05 12:08:37;;;;;;;32.08;25.65;;;21.00;99.90;;;;;;7341113;19;109943;-85
2022/06/05 12:11:14;;;;;;;32.85;26.33;;;21.00;99.90;;;;;;7341524;19;111774;-85
2022/06/05 12:13:51;;;;;;;38.17;28.20;;;20.90;99.90;;;;;;7342061;19;110713;-84
2022/06/05 12:16:48;;;;;;;32.47;26.77;;;20.80;99.90;;;;;;7339826;19;110917;-85
2022/06/05 12:20:06;;;;;;;34.47;26.53;;;20.70;99.90;;;;;;7341700;19;111893;-85
2022/06/05 12:23:01;;;;;;;32.80;25.75;;;20.70;99.90;;;;;;7340143;19;113399;-84
2022/06/05 12:25:58;;;;;;;28.98;24.73;;;20.70;99.90;;;;;;7344189;19;110008;-83
2022/06/05 12:28:43;;;;;;;32.85;26.95;;;20.70;99.90;;;;;;7342244;19;112064;-84
2022/06/05 12:31:38;;;;;;;33.58;26.27;;;20.70;99.90;;;;;;7340693;19;110818;-83
2022/06/05 12:34:40;;;;;;;34.33;26.55;;;20.70;99.90;;;;;;7338787;19;111593;-84
2022/06/05 12:37:21;;;;;;;34.22;26.48;;;20.60;99.90;;;;;;7337221;19;115355;-84
2022/06/05 12:39:52;;;;;;;33.75;25.83;;;20.50;99.90;;;;;;7343142;19;112356;-83
2022/06/05 12:42:31;;;;;;;36.88;27.13;;;20.60;99.90;;;;;;7338505;19;112009;-84
2022/06/05 12:45:03;;;;;;;35.35;27.08;;;20.50;99.90;;;;;;7340356;19;111824;-83
2022/06/05 12:48:04;;;;;;;36.47;27.58;;;20.50;99.90;;;;;;7341771;19;111599;-84
2022/06/05 12:50:43;;;;;;;51.67;26.65;;;20.50;99.90;;;;;;7346484;19;110387;-84
2022/06/05 12:53:13;;;;;;;36.38;25.65;;;20.30;99.90;;;;;;7339842;19;109876;-84
2022/06/05 12:56:07;;;;;;;47.80;25.23;;;20.40;99.90;;;;;;7340710;19;111802;-83
2022/06/05 12:58:50;;;;;;;35.78;25.95;;;20.40;99.90;;;;;;7339898;19;111784;-82
2022/06/05 13:01:36;;;;;;;36.72;26.80;;;20.20;99.90;;;;;;7341824;19;111322;-82
2022/06/05 13:04:17;;;;;;;38.72;27.23;;;20.20;99.90;;;;;;7342800;19;111847;-83
2022/06/05 13:07:03;;;;;;;36.15;26.55;;;20.20;99.90;;;;;;7340900;19;112162;-82
2022/06/05 13:09:44;;;;;;;37.97;27.63;;;20.20;99.90;;;;;;7340056;19;110031;-82
2022/06/05 13:12:17;;;;;;;34.58;27.70;;;20.10;99.90;;;;;;7344812;19;112505;-82
2022/06/05 13:15:14;;;;;;;37.58;26.90;;;20.10;99.90;;;;;;7340920;19;110509;-83
2022/06/05 13:17:46;;;;;;;35.08;25.58;;;20.10;99.90;;;;;;7339519;19;111475;-82
2022/06/05 13:20:28;;;;;;;34.63;26.38;;;20.20;99.90;;;;;;7338634;19;111819;-82
2022/06/05 13:23:25;;;;;;;33.60;26.50;;;20.20;99.90;;;;;;7339795;19;110326;-81
2022/06/05 13:26:16;;;;;;;41.23;28.33;;;20.20;99.90;;;;;;7341220;19;111331;-83
2022/06/05 13:28:47;;;;;;;40.22;29.55;;;20.20;99.90;;;;;;7338227;19;111788;-82
2022/06/05 13:31:47;;;;;;;36.83;28.75;;;20.20;99.90;;;;;;7341708;19;109797;-82